Zanesville, OH

9:43 AM EDT on October 30, 2014 (GMT -0400)
APRSWXNET Zanesville OH US | Change Station
CLOSE
Current Station
Personal Weather Station
Location: Zanesville, OH
Elevation: 839 ft
Nearby Weather Stations

Elev 839 ft 39.95 °N, 82.00 °W | Updated 40 minutes ago

Clear
Clear
35 °F
Feels Like 35 °F
N
0
Wind Variable Wind from WNW
Gusts 0.0 mph

Today
High -- | Low -- °F
--% Chance of Precip.
Yesterday
High -- | Low -- °F
Precip. -- in
7:54 AM 6:27 PM
Waxing Crescent, 44% visible
Pressure 30.17 in
Visibility 8.0 miles
Clouds Clear
Windchill 35 °F
Dew Point 33 °F
Humidity 94%
Rainfall -999.00 in
Snow Depth Not available.
UV 0 out of 12
Pollen .20 out of 12
Air Quality Not available.
Flu Activity Not available.
METAR KZZV 301253Z AUTO 00000KT 8SM CLR 00/M01 A3014 RMK AO2 SLP214 T00001011

More Conditions Fewer Conditions

Pressure 30.17 in
Visibility 8.0 miles
Clouds Clear
Windchill 35 °F
Dew Point 33 °F
Humidity 94%
Rainfall -999.00 in
Snow Depth Not available.
UV 0 out of 12
Pollen .20 out of 12
Air Quality Not available.
Flu Activity Not available.
METAR KZZV 301253Z AUTO 00000KT 8SM CLR 00/M01 A3014 RMK AO2 SLP214 T00001011

More Conditions Fewer Conditions

10-Day Weather Forecast

Almanac

Astronomy

Oct. 30, 2014 Rise Set
Actual Time
Civil Twilight
Nautical Twilight
Astronomical Twilight
Moon
Length of Visible Light
Length of Day
Tomorrow will be .
, % of the Moon is Illuminated

Today's Extremes

State Highs State Lows

Community

WunderPhotos

Upload Photos

1,766,358 photos uploaded!

WunderBlogs® & News

Nearby

Air Quality

  Air Quality AQ Index Pollutant
Not available.

Snow Depth

Station Depth Elevation

Earthquake Activity

City Distance Mag. Time & Date
Minimum magnitude displayed is 2.5.

Coastal Water Temperatures

Place Temperature

Nearby Weather Stations